Terminal Aerodrome Forecast
Issued by NWS

Home | Current Version | Previous Version | Text Only | Print | Product List | Glossary On
Versions: 1 2 3 4 5 6 7 8 9 10 11 12 13 14 15 16 17 18 19 20 21 22 23 24 25 26 27 28 29 30 31 32 33 34
000
FTUS43 KDMX 291124
TAFMCW
TAF
KMCW 291124Z 2912/3012 19010KT P6SM VCSH FEW008 SCT030 BKN080
      TEMPO 2912/2913 4SM TSRA BKN008CB
     FM291400 21011KT P6SM SCT025 BKN090
     FM292100 23009KT P6SM VCSH SCT025 BKN040
     FM300100 33009KT 6SM BR VCSH BKN016 OVC028
     FM300600 34011KT P6SM BKN011 OVC018=

USA.gov is the U.S. government's official web portal to all federal, state and local government web resources and services.